sensor_id;sensor_type;location;lat;lon;timestamp;pressure;altitude;pressure_sealevel;temperature;humidity
71976;BME280;60680;52.182;5.398;2022-07-05T00:01:27;102181.50;;;16.82;64.75
71976;BME280;60680;52.182;5.398;2022-07-05T00:03:54;102179.72;;;16.82;64.85
71976;BME280;60680;52.182;5.398;2022-07-05T00:06:20;102175.31;;;16.83;64.48
71976;BME280;60680;52.182;5.398;2022-07-05T00:08:47;102182.44;;;16.81;65.16
71976;BME280;60680;52.182;5.398;2022-07-05T00:11:14;102182.84;;;16.73;65.66
71976;BME280;60680;52.182;5.398;2022-07-05T00:13:40;102179.53;;;16.69;65.48
71976;BME280;60680;52.182;5.398;2022-07-05T00:16:07;102176.97;;;16.68;65.97
71976;BME280;60680;52.182;5.398;2022-07-05T00:18:33;102186.31;;;16.58;65.95
71976;BME280;60680;52.182;5.398;2022-07-05T00:21:00;102187.91;;;16.60;65.76
71976;BME280;60680;52.182;5.398;2022-07-05T00:23:27;102181.91;;;16.58;65.70
71976;BME280;60680;52.182;5.398;2022-07-05T00:25:53;102196.13;;;16.54;65.94
71976;BME280;60680;52.182;5.398;2022-07-05T00:28:20;102190.88;;;16.54;65.71
71976;BME280;60680;52.182;5.398;2022-07-05T00:30:46;102182.31;;;16.50;65.44
71976;BME280;60680;52.182;5.398;2022-07-05T00:33:14;102184.34;;;16.45;65.70
71976;BME280;60680;52.182;5.398;2022-07-05T00:35:40;102180.78;;;16.46;66.00
71976;BME280;60680;52.182;5.398;2022-07-05T00:38:07;102179.94;;;16.46;66.56
71976;BME280;60680;52.182;5.398;2022-07-05T00:40:33;102181.72;;;16.45;66.64
71976;BME280;60680;52.182;5.398;2022-07-05T00:43:00;102184.59;;;16.41;66.79
71976;BME280;60680;52.182;5.398;2022-07-05T00:45:27;102179.75;;;16.33;66.74
71976;BME280;60680;52.182;5.398;2022-07-05T00:47:53;102181.59;;;16.31;66.60
71976;BME280;60680;52.182;5.398;2022-07-05T00:50:20;102186.84;;;16.31;66.47
71976;BME280;60680;52.182;5.398;2022-07-05T00:52:46;102174.88;;;16.25;67.07
71976;BME280;60680;52.182;5.398;2022-07-05T00:55:13;102170.50;;;16.26;67.14
71976;BME280;60680;52.182;5.398;2022-07-05T00:57:41;102168.97;;;16.22;67.39
71976;BME280;60680;52.182;5.398;2022-07-05T01:00:08;102167.56;;;16.15;67.92
71976;BME280;60680;52.182;5.398;2022-07-05T01:02:35;102171.47;;;16.07;67.78
71976;BME280;60680;52.182;5.398;2022-07-05T01:05:03;102177.31;;;16.13;67.79
71976;BME280;60680;52.182;5.398;2022-07-05T01:07:30;102173.69;;;16.15;68.17
71976;BME280;60680;52.182;5.398;2022-07-05T01:09:56;102171.72;;;16.19;68.13
71976;BME280;60680;52.182;5.398;2022-07-05T01:12:23;102177.09;;;16.17;68.65
71976;BME280;60680;52.182;5.398;2022-07-05T01:14:50;102175.56;;;16.13;68.42
71976;BME280;60680;52.182;5.398;2022-07-05T01:17:17;102173.69;;;16.15;67.90
71976;BME280;60680;52.182;5.398;2022-07-05T01:19:44;102173.91;;;16.10;69.04
71976;BME280;60680;52.182;5.398;2022-07-05T01:22:19;102173.91;;;16.10;68.07
71976;BME280;60680;52.182;5.398;2022-07-05T01:24:50;102178.31;;;16.10;68.57
71976;BME280;60680;52.182;5.398;2022-07-05T01:27:18;102177.63;;;16.06;68.73
71976;BME280;60680;52.182;5.398;2022-07-05T01:29:45;102169.84;;;16.05;68.80
71976;BME280;60680;52.182;5.398;2022-07-05T01:32:12;102168.84;;;16.07;68.43
71976;BME280;60680;52.182;5.398;2022-07-05T01:34:40;102174.91;;;16.08;69.35
71976;BME280;60680;52.182;5.398;2022-07-05T01:37:08;102171.47;;;16.07;68.73
71976;BME280;60680;52.182;5.398;2022-07-05T01:39:35;102168.75;;;16.09;68.71
71976;BME280;60680;52.182;5.398;2022-07-05T01:42:02;102164.84;;;16.00;69.77
71976;BME280;60680;52.182;5.398;2022-07-05T01:44:29;102178.50;;;15.89;69.74
71976;BME280;60680;52.182;5.398;2022-07-05T01:47:01;102179.44;;;15.88;70.04
71976;BME280;60680;52.182;5.398;2022-07-05T01:49:31;102178.50;;;15.89;69.04
71976;BME280;60680;52.182;5.398;2022-07-05T01:52:04;102177.50;;;15.92;68.97
71976;BME280;60680;52.182;5.398;2022-07-05T01:54:33;102176.03;;;15.86;69.52
71976;BME280;60680;52.182;5.398;2022-07-05T01:57:00;102178.66;;;15.86;69.93
71976;BME280;60680;52.182;5.398;2022-07-05T01:59:27;102184.69;;;15.88;69.58
71976;BME280;60680;52.182;5.398;2022-07-05T02:01:54;102185.28;;;15.94;69.85
71976;BME280;60680;52.182;5.398;2022-07-05T02:04:20;102182.84;;;15.90;70.36
71976;BME280;60680;52.182;5.398;2022-07-05T02:06:47;102175.56;;;15.96;69.51
71976;BME280;60680;52.182;5.398;2022-07-05T02:09:13;102175.56;;;15.96;70.12
71976;BME280;60680;52.182;5.398;2022-07-05T02:11:40;102175.56;;;15.96;69.99
71976;BME280;60680;52.182;5.398;2022-07-05T02:14:06;102180.28;;;15.89;70.33
71976;BME280;60680;52.182;5.398;2022-07-05T02:16:33;102179.75;;;15.82;70.53
71976;BME280;60680;52.182;5.398;2022-07-05T02:19:00;102178.91;;;15.82;71.44
71976;BME280;60680;52.182;5.398;2022-07-05T02:21:26;102176.28;;;15.82;70.68
71976;BME280;60680;52.182;5.398;2022-07-05T02:23:53;102179.03;;;15.79;70.82
71976;BME280;60680;52.182;5.398;2022-07-05T02:26:20;102174.44;;;15.84;70.46
71976;BME280;60680;52.182;5.398;2022-07-05T02:28:46;102172.41;;;15.89;70.47
71976;BME280;60680;52.182;5.398;2022-07-05T02:31:13;102168.00;;;15.89;70.19
71976;BME280;60680;52.182;5.398;2022-07-05T02:33:40;102176.41;;;15.79;71.33
71976;BME280;60680;52.182;5.398;2022-07-05T02:36:11;102165.84;;;15.80;70.79
71976;BME280;60680;52.182;5.398;2022-07-05T02:38:38;102165.25;;;15.75;70.84
71976;BME280;60680;52.182;5.398;2022-07-05T02:41:06;102175.50;;;15.80;71.09
71976;BME280;60680;52.182;5.398;2022-07-05T02:43:33;102165.06;;;15.78;71.31
71976;BME280;60680;52.182;5.398;2022-07-05T02:46:01;102180.91;;;15.77;71.73
71976;BME280;60680;52.182;5.398;2022-07-05T02:48:28;102173.13;;;15.75;71.66
71976;BME280;60680;52.182;5.398;2022-07-05T02:50:55;102175.81;;;15.74;71.29
71976;BME280;60680;52.182;5.398;2022-07-05T02:53:22;102178.66;;;15.69;71.76
71976;BME280;60680;52.182;5.398;2022-07-05T02:55:49;102176.88;;;15.69;71.25
71976;BME280;60680;52.182;5.398;2022-07-05T02:58:16;102180.63;;;15.64;71.68
71976;BME280;60680;52.182;5.398;2022-07-05T03:00:48;102175.50;;;15.62;71.40
71976;BME280;60680;52.182;5.398;2022-07-05T03:03:15;102185.44;;;15.56;71.96
71976;BME280;60680;52.182;5.398;2022-07-05T03:05:42;102182.72;;;15.57;72.09
71976;BME280;60680;52.182;5.398;2022-07-05T03:08:09;102188.44;;;15.48;72.51
71976;BME280;60680;52.182;5.398;2022-07-05T03:10:35;102187.06;;;15.41;72.73
71976;BME280;60680;52.182;5.398;2022-07-05T03:13:03;102186.19;;;15.40;72.83
71976;BME280;60680;52.182;5.398;2022-07-05T03:15:30;102184.34;;;15.42;72.48
71976;BME280;60680;52.182;5.398;2022-07-05T03:17:56;102185.81;;;15.48;72.27
71976;BME280;60680;52.182;5.398;2022-07-05T03:20:23;102185.22;;;15.43;72.89
71976;BME280;60680;52.182;5.398;2022-07-05T03:22:50;102194.94;;;15.41;72.98
71976;BME280;60680;52.182;5.398;2022-07-05T03:25:16;102196.84;;;15.37;72.97
71976;BME280;60680;52.182;5.398;2022-07-05T03:27:43;102200.31;;;15.38;73.02
71976;BME280;60680;52.182;5.398;2022-07-05T03:30:10;102193.38;;;15.37;72.88
71976;BME280;60680;52.182;5.398;2022-07-05T03:32:36;102201.31;;;15.35;73.14
71976;BME280;60680;52.182;5.398;2022-07-05T03:35:03;102195.91;;;15.38;72.97
71976;BME280;60680;52.182;5.398;2022-07-05T03:37:30;102205.56;;;15.38;73.56
71976;BME280;60680;52.182;5.398;2022-07-05T03:39:56;102198.44;;;15.40;72.94
71976;BME280;60680;52.182;5.398;2022-07-05T03:42:22;102204.84;;;15.34;73.54
71976;BME280;60680;52.182;5.398;2022-07-05T03:44:49;102209.94;;;15.37;73.31
71976;BME280;60680;52.182;5.398;2022-07-05T03:47:15;102206.50;;;15.37;73.93
71976;BME280;60680;52.182;5.398;2022-07-05T03:49:42;102213.28;;;15.41;73.20
71976;BME280;60680;52.182;5.398;2022-07-05T03:52:09;102206.25;;;15.41;73.62
71976;BME280;60680;52.182;5.398;2022-07-05T03:54:35;102207.94;;;15.42;73.53
71976;BME280;60680;52.182;5.398;2022-07-05T03:57:02;102215.59;;;15.47;73.66
71976;BME280;60680;52.182;5.398;2022-07-05T03:59:29;102209.19;;;15.53;73.54
71976;BME280;60680;52.182;5.398;2022-07-05T04:01:55;102211.59;;;15.57;73.45
71976;BME280;60680;52.182;5.398;2022-07-05T04:04:22;102215.09;;;15.58;73.42
71976;BME280;60680;52.182;5.398;2022-07-05T04:06:48;102214.16;;;15.59;73.96
71976;BME280;60680;52.182;5.398;2022-07-05T04:09:15;102214.91;;;15.61;73.88
71976;BME280;60680;52.182;5.398;2022-07-05T04:11:42;102210.50;;;15.61;73.30
71976;BME280;60680;52.182;5.398;2022-07-05T04:14:08;102216.53;;;15.63;72.82
71976;BME280;60680;52.182;5.398;2022-07-05T04:16:36;102219.94;;;15.65;73.08
71976;BME280;60680;52.182;5.398;2022-07-05T04:19:06;102210.22;;;15.67;73.06
71976;BME280;60680;52.182;5.398;2022-07-05T04:21:32;102218.84;;;15.69;73.47
71976;BME280;60680;52.182;5.398;2022-07-05T04:23:59;102212.63;;;15.72;73.33
71976;BME280;60680;52.182;5.398;2022-07-05T04:26:26;102215.38;;;15.69;73.76
71976;BME280;60680;52.182;5.398;2022-07-05T04:28:52;102211.78;;;15.72;73.51
71976;BME280;60680;52.182;5.398;2022-07-05T04:31:23;102218.78;;;15.71;73.79
71976;BME280;60680;52.182;5.398;2022-07-05T04:33:49;102213.50;;;15.73;73.82
71976;BME280;60680;52.182;5.398;2022-07-05T04:36:17;102215.19;;;15.74;74.11
71976;BME280;60680;52.182;5.398;2022-07-05T04:38:43;102213.16;;;15.79;73.66
71976;BME280;60680;52.182;5.398;2022-07-05T04:41:10;102213.94;;;15.81;73.60
71976;BME280;60680;52.182;5.398;2022-07-05T04:43:36;102216.56;;;15.81;73.55
71976;BME280;60680;52.182;5.398;2022-07-05T04:46:03;102213.03;;;15.82;73.82
71976;BME280;60680;52.182;5.398;2022-07-05T04:48:29;102220.59;;;15.88;73.86
71976;BME280;60680;52.182;5.398;2022-07-05T04:50:56;102213.50;;;15.90;74.28
71976;BME280;60680;52.182;5.398;2022-07-05T04:53:22;102212.41;;;15.94;73.65
71976;BME280;60680;52.182;5.398;2022-07-05T04:55:49;102219.50;;;15.92;74.45
71976;BME280;60680;52.182;5.398;2022-07-05T04:58:15;102221.19;;;15.93;74.27
71976;BME280;60680;52.182;5.398;2022-07-05T05:00:42;102219.41;;;15.94;74.32
71976;BME280;60680;52.182;5.398;2022-07-05T05:03:08;102225.44;;;15.96;74.52
71976;BME280;60680;52.182;5.398;2022-07-05T05:05:35;102219.03;;;16.01;74.08
71976;BME280;60680;52.182;5.398;2022-07-05T05:08:01;102206.38;;;16.09;73.75
71976;BME280;60680;52.182;5.398;2022-07-05T05:10:28;102215.84;;;16.12;73.90
71976;BME280;60680;52.182;5.398;2022-07-05T05:12:54;102210.69;;;16.10;73.52
71976;BME280;60680;52.182;5.398;2022-07-05T05:15:21;102216.63;;;16.14;74.52
71976;BME280;60680;52.182;5.398;2022-07-05T05:17:48;102220.25;;;16.12;73.63
71976;BME280;60680;52.182;5.398;2022-07-05T05:20:16;102217.56;;;16.13;74.33
71976;BME280;60680;52.182;5.398;2022-07-05T05:22:44;102220.03;;;16.16;74.57
71976;BME280;60680;52.182;5.398;2022-07-05T05:25:11;102213.50;;;16.23;74.12
71976;BME280;60680;52.182;5.398;2022-07-05T05:27:48;102216.75;;;16.28;73.60
71976;BME280;60680;52.182;5.398;2022-07-05T05:30:16;102222.78;;;16.30;73.38
71976;BME280;60680;52.182;5.398;2022-07-05T05:32:44;102230.34;;;16.37;73.55
71976;BME280;60680;52.182;5.398;2022-07-05T05:35:10;102226.69;;;16.39;73.86
71976;BME280;60680;52.182;5.398;2022-07-05T05:37:54;102236.19;;;16.42;73.71
71976;BME280;60680;52.182;5.398;2022-07-05T05:40:22;102231.47;;;16.48;74.00
71976;BME280;60680;52.182;5.398;2022-07-05T05:42:49;102230.22;;;16.56;74.00
71976;BME280;60680;52.182;5.398;2022-07-05T05:45:17;102231.75;;;16.60;73.93
71976;BME280;60680;52.182;5.398;2022-07-05T05:47:48;102231.06;;;16.56;73.60
71976;BME280;60680;52.182;5.398;2022-07-05T05:50:20;102231.38;;;16.50;73.18
71976;BME280;60680;52.182;5.398;2022-07-05T05:52:47;102238.19;;;16.54;73.71
71976;BME280;60680;52.182;5.398;2022-07-05T05:55:13;102240.06;;;16.68;73.27
71976;BME280;60680;52.182;5.398;2022-07-05T05:57:40;102239.00;;;17.04;71.69
71976;BME280;60680;52.182;5.398;2022-07-05T06:00:07;102240.72;;;17.21;71.69
71976;BME280;60680;52.182;5.398;2022-07-05T06:02:34;102241.34;;;17.40;71.13
71976;BME280;60680;52.182;5.398;2022-07-05T06:05:02;102244.53;;;17.47;70.55
71976;BME280;60680;52.182;5.398;2022-07-05T06:07:28;102245.94;;;17.52;70.62
71976;BME280;60680;52.182;5.398;2022-07-05T06:09:55;102242.72;;;17.47;71.40
71976;BME280;60680;52.182;5.398;2022-07-05T06:12:21;102246.72;;;17.39;71.24
71976;BME280;60680;52.182;5.398;2022-07-05T06:14:48;102247.00;;;17.34;71.24
71976;BME280;60680;52.182;5.398;2022-07-05T06:17:14;102256.00;;;17.30;70.90
71976;BME280;60680;52.182;5.398;2022-07-05T06:19:41;102261.25;;;17.30;70.55
71976;BME280;60680;52.182;5.398;2022-07-05T06:22:07;102263.78;;;17.31;70.24
71976;BME280;60680;52.182;5.398;2022-07-05T06:24:34;102263.69;;;17.33;70.43
71976;BME280;60680;52.182;5.398;2022-07-05T06:27:00;102260.88;;;17.36;70.49
71976;BME280;60680;52.182;5.398;2022-07-05T06:29:27;102273.06;;;17.39;69.83
71976;BME280;60680;52.182;5.398;2022-07-05T06:31:53;102273.69;;;17.42;70.07
71976;BME280;60680;52.182;5.398;2022-07-05T06:34:20;102272.50;;;17.48;68.96
71976;BME280;60680;52.182;5.398;2022-07-05T06:36:46;102280.81;;;17.56;69.51
71976;BME280;60680;52.182;5.398;2022-07-05T06:39:13;102279.25;;;17.68;68.38
71976;BME280;60680;52.182;5.398;2022-07-05T06:41:39;102277.41;;;17.86;68.82
71976;BME280;60680;52.182;5.398;2022-07-05T06:44:06;102278.22;;;18.02;67.82
71976;BME280;60680;52.182;5.398;2022-07-05T06:46:52;102276.91;;;18.09;67.15
71976;BME280;60680;52.182;5.398;2022-07-05T06:49:19;102279.34;;;18.12;66.57
71976;BME280;60680;52.182;5.398;2022-07-05T06:51:45;102290.91;;;18.10;66.16
71976;BME280;60680;52.182;5.398;2022-07-05T06:54:12;102285.06;;;18.05;66.70
71976;BME280;60680;52.182;5.398;2022-07-05T06:56:58;102291.25;;;18.04;65.92
71976;BME280;60680;52.182;5.398;2022-07-05T06:59:45;102289.59;;;18.03;65.67
71976;BME280;60680;52.182;5.398;2022-07-05T07:02:27;102295.97;;;17.99;65.88
71976;BME280;60680;52.182;5.398;2022-07-05T07:04:55;102299.38;;;18.01;65.47
71976;BME280;60680;52.182;5.398;2022-07-05T07:07:39;102297.28;;;18.06;65.74
71976;BME280;60680;52.182;5.398;2022-07-05T07:10:24;102295.63;;;18.05;65.60
71976;BME280;60680;52.182;5.398;2022-07-05T07:12:56;102292.13;;;18.04;65.00
71976;BME280;60680;52.182;5.398;2022-07-05T07:15:23;102295.41;;;18.08;64.41
71976;BME280;60680;52.182;5.398;2022-07-05T07:17:49;102287.44;;;18.09;65.05
71976;BME280;60680;52.182;5.398;2022-07-05T07:20:16;102280.38;;;18.10;65.15
71976;BME280;60680;52.182;5.398;2022-07-05T07:22:43;102289.97;;;18.11;65.26
71976;BME280;60680;52.182;5.398;2022-07-05T07:25:09;102293.09;;;18.18;64.65
71976;BME280;60680;52.182;5.398;2022-07-05T07:27:45;102289.44;;;18.20;64.66
71976;BME280;60680;52.182;5.398;2022-07-05T07:30:13;102291.78;;;18.25;64.37
71976;BME280;60680;52.182;5.398;2022-07-05T07:32:40;102297.53;;;18.31;63.74
71976;BME280;60680;52.182;5.398;2022-07-05T07:35:08;102293.78;;;18.36;64.10
71976;BME280;60680;52.182;5.398;2022-07-05T07:37:34;102298.75;;;18.40;63.15
71976;BME280;60680;52.182;5.398;2022-07-05T07:40:02;102299.34;;;18.45;63.65
71976;BME280;60680;52.182;5.398;2022-07-05T07:42:29;102296.13;;;18.40;62.89
71976;BME280;60680;52.182;5.398;2022-07-05T07:44:55;102303.94;;;18.42;63.12
71976;BME280;60680;52.182;5.398;2022-07-05T07:47:22;102294.53;;;18.38;62.46
71976;BME280;60680;52.182;5.398;2022-07-05T07:49:49;102307.63;;;18.39;62.99
71976;BME280;60680;52.182;5.398;2022-07-05T07:52:15;102300.38;;;18.43;63.64
71976;BME280;60680;52.182;5.398;2022-07-05T07:54:42;102301.69;;;18.50;63.69
71976;BME280;60680;52.182;5.398;2022-07-05T07:57:09;102306.22;;;18.48;61.57
71976;BME280;60680;52.182;5.398;2022-07-05T07:59:36;102308.69;;;18.51;62.01
71976;BME280;60680;52.182;5.398;2022-07-05T08:02:02;102304.91;;;18.69;61.31
71976;BME280;60680;52.182;5.398;2022-07-05T08:04:29;102301.78;;;19.06;60.07
71976;BME280;60680;52.182;5.398;2022-07-05T08:06:56;102298.00;;;19.24;59.69
71976;BME280;60680;52.182;5.398;2022-07-05T08:09:22;102303.38;;;19.23;56.83
71976;BME280;60680;52.182;5.398;2022-07-05T08:11:49;102297.16;;;19.24;57.04
71976;BME280;60680;52.182;5.398;2022-07-05T08:14:16;102301.66;;;19.36;57.49
71976;BME280;60680;52.182;5.398;2022-07-05T08:16:43;102310.41;;;19.37;57.22
71976;BME280;60680;52.182;5.398;2022-07-05T08:19:18;102318.97;;;19.13;57.41
71976;BME280;60680;52.182;5.398;2022-07-05T08:22:04;102315.50;;;18.98;58.40
71976;BME280;60680;52.182;5.398;2022-07-05T08:24:31;102315.41;;;18.85;57.62
71976;BME280;60680;52.182;5.398;2022-07-05T08:26:57;102315.84;;;18.78;58.67
71976;BME280;60680;52.182;5.398;2022-07-05T08:29:24;102316.13;;;18.73;58.43
71976;BME280;60680;52.182;5.398;2022-07-05T08:31:51;102321.56;;;18.70;59.07
71976;BME280;60680;52.182;5.398;2022-07-05T08:34:18;102312.53;;;18.74;59.04
71976;BME280;60680;52.182;5.398;2022-07-05T08:36:46;102315.41;;;18.85;59.12
71976;BME280;60680;52.182;5.398;2022-07-05T08:39:13;102315.66;;;18.95;57.83
71976;BME280;60680;52.182;5.398;2022-07-05T08:41:41;102305.22;;;18.93;57.29
71976;BME280;60680;52.182;5.398;2022-07-05T08:44:08;102309.63;;;18.93;58.19
71976;BME280;60680;52.182;5.398;2022-07-05T08:46:38;102314.06;;;18.92;59.29
71976;BME280;60680;52.182;5.398;2022-07-05T08:49:06;102318.97;;;18.99;59.40
71976;BME280;60680;52.182;5.398;2022-07-05T08:51:39;102299.75;;;19.11;59.01
71976;BME280;60680;52.182;5.398;2022-07-05T08:54:08;102301.03;;;19.18;59.72
71976;BME280;60680;52.182;5.398;2022-07-05T08:56:35;102298.41;;;19.45;57.79
71976;BME280;60680;52.182;5.398;2022-07-05T08:59:21;102305.91;;;19.66;55.47
71976;BME280;60680;52.182;5.398;2022-07-05T09:01:49;102299.41;;;19.84;55.10
71976;BME280;60680;52.182;5.398;2022-07-05T09:04:16;102299.19;;;19.74;56.07
71976;BME280;60680;52.182;5.398;2022-07-05T09:06:46;102304.50;;;19.60;55.35
71976;BME280;60680;52.182;5.398;2022-07-05T09:09:17;102310.78;;;19.45;55.79
71976;BME280;60680;52.182;5.398;2022-07-05T09:11:45;102312.31;;;19.34;55.88
71976;BME280;60680;52.182;5.398;2022-07-05T09:14:34;102311.00;;;19.27;56.52
71976;BME280;60680;52.182;5.398;2022-07-05T09:17:01;102306.19;;;19.34;55.61
71976;BME280;60680;52.182;5.398;2022-07-05T09:19:27;102315.34;;;19.28;55.21
71976;BME280;60680;52.182;5.398;2022-07-05T09:22:06;102312.34;;;19.20;55.57
71976;BME280;60680;52.182;5.398;2022-07-05T09:24:44;102313.50;;;19.43;55.73
71976;BME280;60680;52.182;5.398;2022-07-05T09:27:12;102312.84;;;19.81;54.77
71976;BME280;60680;52.182;5.398;2022-07-05T09:29:53;102317.78;;;20.13;55.19
71976;BME280;60680;52.182;5.398;2022-07-05T09:32:27;102313.00;;;20.31;53.25
71976;BME280;60680;52.182;5.398;2022-07-05T09:34:56;102318.50;;;20.15;52.12
71976;BME280;60680;52.182;5.398;2022-07-05T09:37:42;102321.50;;;20.23;53.69
71976;BME280;60680;52.182;5.398;2022-07-05T09:40:10;102316.63;;;20.43;54.26
71976;BME280;60680;52.182;5.398;2022-07-05T09:42:45;102317.25;;;20.33;52.84
71976;BME280;60680;52.182;5.398;2022-07-05T09:45:23;102316.28;;;20.09;53.67
71976;BME280;60680;52.182;5.398;2022-07-05T09:47:53;102314.75;;;19.92;53.08
71976;BME280;60680;52.182;5.398;2022-07-05T09:50:40;102321.06;;;19.77;53.50
71976;BME280;60680;52.182;5.398;2022-07-05T09:53:44;102320.69;;;19.68;54.29
71976;BME280;60680;52.182;5.398;2022-07-05T09:56:11;102318.53;;;19.75;54.70
71976;BME280;60680;52.182;5.398;2022-07-05T09:58:38;102323.69;;;20.16;54.78
71976;BME280;60680;52.182;5.398;2022-07-05T10:06:26;102316.81;;;20.52;53.72
71976;BME280;60680;52.182;5.398;2022-07-05T10:08:53;102322.03;;;20.41;52.91
71976;BME280;60680;52.182;5.398;2022-07-05T10:11:21;102337.22;;;20.25;53.13
71976;BME280;60680;52.182;5.398;2022-07-05T10:13:55;102332.75;;;20.12;53.68
71976;BME280;60680;52.182;5.398;2022-07-05T10:16:22;102334.38;;;20.15;53.43
71976;BME280;60680;52.182;5.398;2022-07-05T10:18:56;102330.69;;;20.43;54.09
71976;BME280;60680;52.182;5.398;2022-07-05T10:21:24;102316.00;;;20.65;53.09
71976;BME280;60680;52.182;5.398;2022-07-05T10:23:52;102323.44;;;20.72;53.41
71976;BME280;60680;52.182;5.398;2022-07-05T10:26:23;102321.69;;;20.97;51.17
71976;BME280;60680;52.182;5.398;2022-07-05T10:28:52;102322.72;;;21.07;50.15
71976;BME280;60680;52.182;5.398;2022-07-05T10:31:28;102311.44;;;20.80;49.55
71976;BME280;60680;52.182;5.398;2022-07-05T10:33:56;102312.28;;;20.54;49.20
71976;BME280;60680;52.182;5.398;2022-07-05T10:36:24;102318.22;;;20.71;50.02
71976;BME280;60680;52.182;5.398;2022-07-05T10:38:51;102318.84;;;21.00;49.20
71976;BME280;60680;52.182;5.398;2022-07-05T10:41:23;102319.00;;;21.10;48.21
71976;BME280;60680;52.182;5.398;2022-07-05T10:43:55;102320.09;;;20.94;49.58
71976;BME280;60680;52.182;5.398;2022-07-05T10:46:38;102311.72;;;21.01;50.73
71976;BME280;60680;52.182;5.398;2022-07-05T10:49:14;102316.31;;;21.23;50.09
71976;BME280;60680;52.182;5.398;2022-07-05T10:51:41;102318.09;;;21.35;49.09
71976;BME280;60680;52.182;5.398;2022-07-05T10:54:08;102323.72;;;21.43;48.16
71976;BME280;60680;52.182;5.398;2022-07-05T10:56:35;102315.53;;;21.46;48.22
71976;BME280;60680;52.182;5.398;2022-07-05T10:59:08;102312.81;;;21.59;48.54
71976;BME280;60680;52.182;5.398;2022-07-05T11:01:40;102310.63;;;21.77;46.32
71976;BME280;60680;52.182;5.398;2022-07-05T11:04:12;102318.69;;;21.75;46.81
71976;BME280;60680;52.182;5.398;2022-07-05T11:06:43;102318.19;;;21.33;48.18
71976;BME280;60680;52.182;5.398;2022-07-05T11:11:38;102323.88;;;21.16;51.15
71976;BME280;60680;52.182;5.398;2022-07-05T11:14:31;102333.44;;;20.93;48.62
71976;BME280;60680;52.182;5.398;2022-07-05T11:17:19;102323.19;;;20.88;50.08
71976;BME280;60680;52.182;5.398;2022-07-05T11:20:14;102326.66;;;21.02;49.98
71976;BME280;60680;52.182;5.398;2022-07-05T11:23:02;102331.31;;;20.98;49.29
71976;BME280;60680;52.182;5.398;2022-07-05T11:25:30;102331.44;;;20.96;48.21
71976;BME280;60680;52.182;5.398;2022-07-05T11:28:12;102343.63;;;20.86;48.53
71976;BME280;60680;52.182;5.398;2022-07-05T11:30:56;102336.31;;;20.90;49.22
71976;BME280;60680;52.182;5.398;2022-07-05T11:33:28;102334.25;;;21.19;48.07
71976;BME280;60680;52.182;5.398;2022-07-05T11:35:56;102333.06;;;21.23;47.57
71976;BME280;60680;52.182;5.398;2022-07-05T11:38:24;102336.47;;;21.25;47.82
71976;BME280;60680;52.182;5.398;2022-07-05T11:41:13;102325.06;;;21.49;47.89
71976;BME280;60680;52.182;5.398;2022-07-05T11:43:41;102322.91;;;21.78;48.43
71976;BME280;60680;52.182;5.398;2022-07-05T11:46:09;102319.97;;;21.94;47.87
71976;BME280;60680;52.182;5.398;2022-07-05T11:48:55;102320.31;;;21.89;47.02
71976;BME280;60680;52.182;5.398;2022-07-05T11:51:22;102326.31;;;21.56;46.97
71976;BME280;60680;52.182;5.398;2022-07-05T11:53:49;102332.84;;;21.26;47.60
71976;BME280;60680;52.182;5.398;2022-07-05T11:56:35;102326.75;;;21.50;46.67
71976;BME280;60680;52.182;5.398;2022-07-05T11:59:16;102324.03;;;21.63;46.82
71976;BME280;60680;52.182;5.398;2022-07-05T12:01:44;102324.22;;;21.72;45.56
71976;BME280;60680;52.182;5.398;2022-07-05T12:04:11;102329.09;;;21.90;46.17
71976;BME280;60680;52.182;5.398;2022-07-05T12:06:41;102324.44;;;21.93;47.52
71976;BME280;60680;52.182;5.398;2022-07-05T12:09:08;102328.69;;;22.18;45.32
71976;BME280;60680;52.182;5.398;2022-07-05T12:11:35;102327.06;;;22.29;43.69
71976;BME280;60680;52.182;5.398;2022-07-05T12:14:21;102331.22;;;22.09;42.60
71976;BME280;60680;52.182;5.398;2022-07-05T12:16:50;102330.94;;;22.01;45.15
71976;BME280;60680;52.182;5.398;2022-07-05T12:19:36;102327.91;;;21.94;43.44
71976;BME280;60680;52.182;5.398;2022-07-05T12:22:02;102319.72;;;21.97;44.14
71976;BME280;60680;52.182;5.398;2022-07-05T12:24:29;102327.94;;;22.05;43.73
71976;BME280;60680;52.182;5.398;2022-07-05T12:26:56;102321.91;;;22.03;43.65
71976;BME280;60680;52.182;5.398;2022-07-05T12:29:23;102337.00;;;22.14;43.97
71976;BME280;60680;52.182;5.398;2022-07-05T12:32:04;102334.44;;;22.36;43.96
71976;BME280;60680;52.182;5.398;2022-07-05T12:34:32;102332.88;;;22.34;42.58
71976;BME280;60680;52.182;5.398;2022-07-05T12:36:58;102338.13;;;22.23;42.72
71976;BME280;60680;52.182;5.398;2022-07-05T12:39:25;102342.19;;;22.15;43.19
71976;BME280;60680;52.182;5.398;2022-07-05T12:41:51;102340.94;;;22.32;43.77
71976;BME280;60680;52.182;5.398;2022-07-05T12:44:19;102334.69;;;22.45;42.28
71976;BME280;60680;52.182;5.398;2022-07-05T12:46:47;102338.81;;;22.49;42.67
71976;BME280;60680;52.182;5.398;2022-07-05T12:49:15;102339.28;;;22.07;41.79
71976;BME280;60680;52.182;5.398;2022-07-05T12:51:44;102343.03;;;22.16;42.75
71976;BME280;60680;52.182;5.398;2022-07-05T12:54:23;102338.44;;;22.07;43.58
71976;BME280;60680;52.182;5.398;2022-07-05T12:57:14;102336.22;;;21.89;41.47
71976;BME280;60680;52.182;5.398;2022-07-05T13:00:07;102328.03;;;22.04;40.69
71976;BME280;60680;52.182;5.398;2022-07-05T13:02:36;102337.66;;;22.29;41.65
71976;BME280;60680;52.182;5.398;2022-07-05T13:05:06;102337.00;;;22.49;42.06
71976;BME280;60680;52.182;5.398;2022-07-05T13:07:41;102329.88;;;22.61;41.75
71976;BME280;60680;52.182;5.398;2022-07-05T13:10:19;102339.75;;;22.36;41.75